Time;durP1;ratioP1;P1;durP2;ratioP2;P2;SDS_P1;SDS_P2;PMS_P1;PMS_P2;Temp;Humidity;BMP_temperature;BMP_pressure;BME280_temperature;BME280_humidity;BME280_pressure;Samples;Min_cycle;Max_cycle;Signal;HPM_P1;HPM_P2
2023/10/03 00:13:59;;;;;;;18.80;10.10;;;;;;;19.07;99.73;100635.08;666833;1270;139933;-79
2023/10/03 00:29:04;;;;;;;17.80;10.30;;;;;;;18.93;99.96;100632.94;669702;1267;139721;-79
2023/10/03 00:44:10;;;;;;;23.20;12.10;;;;;;;18.77;100.00;100622.58;667932;1269;140482;-79
2023/10/03 00:59:14;;;;;;;19.90;11.40;;;;;;;18.80;100.00;100615.19;669825;1270;139751;-79
2023/10/03 01:14:19;;;;;;;24.40;11.90;;;;;;;18.87;100.00;100596.85;668995;1269;140394;-79
2023/10/03 01:29:22;;;;;;;23.10;10.80;;;;;;;18.65;100.00;100567.70;674227;1269;140643;-79
2023/10/03 01:44:26;;;;;;;21.00;10.90;;;;;;;18.42;100.00;100547.46;668766;1266;139851;-79
2023/10/03 01:59:30;;;;;;;26.90;11.30;;;;;;;18.30;100.00;100532.15;676174;1256;140719;-78
2023/10/03 02:14:33;;;;;;;19.30;10.60;;;;;;;18.20;100.00;100510.92;680083;1257;139170;-79
2023/10/03 02:29:38;;;;;;;18.50;10.50;;;;;;;18.13;100.00;100495.73;671985;1266;140186;-78
2023/10/03 02:44:43;;;;;;;17.60;10.90;;;;;;;18.07;100.00;100471.84;676850;1260;139493;-78
2023/10/03 02:59:47;;;;;;;18.60;10.50;;;;;;;17.97;100.00;100459.46;673870;1261;140232;-78
2023/10/03 03:14:52;;;;;;;18.00;10.50;;;;;;;17.88;100.00;100439.41;670733;1262;139635;-78
2023/10/03 03:45:21;;;;;;;35.80;15.40;;;;;;;17.66;100.00;100393.89;670287;1259;138874;-78
2023/10/03 04:00:26;;;;;;;20.70;11.00;;;;;;;17.57;100.00;100382.05;673939;1261;139915;-78
2023/10/03 04:15:29;;;;;;;24.10;12.30;;;;;;;17.48;100.00;100367.10;669783;1262;139989;-79
2023/10/03 04:30:34;;;;;;;16.60;9.20;;;;;;;17.37;100.00;100360.08;676780;1260;140502;-79
2023/10/03 04:45:39;;;;;;;15.90;9.90;;;;;;;17.25;100.00;100347.56;677734;1260;140508;-80
2023/10/03 05:00:42;;;;;;;18.00;10.30;;;;;;;17.15;100.00;100339.68;681196;1261;140058;-80
2023/10/03 05:15:45;;;;;;;23.50;11.30;;;;;;;17.10;100.00;100327.78;675002;1259;141105;-80
2023/10/03 05:30:50;;;;;;;17.00;9.70;;;;;;;17.27;100.00;100317.75;672382;1259;141734;-79
2023/10/03 05:45:53;;;;;;;17.40;10.40;;;;;;;17.67;100.00;100309.27;678052;1258;139737;-79
2023/10/03 06:00:56;;;;;;;20.00;10.10;;;;;;;18.39;100.00;100303.23;674473;1260;141255;-79
2023/10/03 06:16:00;;;;;;;14.10;8.40;;;;;;;19.97;100.00;100293.38;677695;1258;140925;-79
2023/10/03 06:31:03;;;;;;;15.00;7.90;;;;;;;21.91;94.73;100292.91;672124;1263;138928;-79
2023/10/03 06:46:07;;;;;;;14.40;7.80;;;;;;;23.38;88.24;100274.58;671417;1259;139957;-80
2023/10/03 07:01:11;;;;;;;31.00;16.60;;;;;;;23.89;82.31;100246.80;670972;1256;138927;-78
2023/10/03 07:16:16;;;;;;;20.70;12.90;;;;;;;25.07;77.79;100238.58;669561;1269;138265;-79
2023/10/03 07:31:19;;;;;;;13.40;7.70;;;;;;;23.08;77.53;100228.45;669380;1260;139586;-78
2023/10/03 07:46:25;;;;;;;17.20;7.90;;;;;;;23.79;77.47;100224.68;669149;1262;138822;-78
2023/10/03 08:01:30;;;;;;;15.90;8.60;;;;;;;25.62;69.34;100210.23;672521;1263;139906;-79
2023/10/03 08:16:56;;;;;;;11.70;6.90;;;;;;;26.60;65.83;100180.75;672587;1263;138298;-78
2023/10/03 08:32:00;;;;;;;25.40;10.90;;;;;;;27.03;63.08;100153.33;668896;1263;229716;-78
2023/10/03 08:47:10;;;;;;;12.00;7.00;;;;;;;26.55;62.38;100122.10;669115;1261;139102;-79
2023/10/03 09:02:14;;;;;;;14.80;6.70;;;;;;;27.22;61.68;100109.98;669751;1263;138305;-78
2023/10/03 09:17:21;;;;;;;122.20;46.60;;;;;;;27.19;60.32;100073.55;670455;1261;139157;-79
2023/10/03 09:32:27;;;;;;;13.20;6.70;;;;;;;27.76;58.83;100046.11;672406;1262;138618;-79
2023/10/03 09:47:34;;;;;;;15.70;6.60;;;;;;;28.55;57.11;100025.73;669992;1271;138524;-78
2023/10/03 10:02:47;;;;;;;12.30;6.20;;;;;;;29.29;55.02;100008.13;670266;1259;138361;-79
2023/10/03 10:17:55;;;;;;;11.10;5.80;;;;;;;27.79;56.98;99969.52;674474;1257;138294;-78
2023/10/03 10:33:23;;;;;;;15.60;5.60;;;;;;;28.47;55.33;99952.98;670629;1263;139645;-78
2023/10/03 10:48:39;;;;;;;12.20;5.20;;;;;;;27.42;56.58;99910.38;669683;1260;139210;-78
2023/10/03 11:03:43;;;;;;;17.50;5.70;;;;;;;27.96;54.89;99884.38;669900;1263;139512;-78
2023/10/03 11:18:47;;;;;;;13.90;5.70;;;;;;;27.96;54.97;99853.81;669796;1266;138754;-79
2023/10/03 11:33:51;;;;;;;12.80;5.80;;;;;;;27.88;55.19;99826.39;672868;1260;139071;-78
2023/10/03 11:48:59;;;;;;;16.20;5.30;;;;;;;28.41;54.60;99799.85;669549;1262;139295;-80
2023/10/03 12:04:05;;;;;;;12.30;5.80;;;;;;;28.29;54.69;99771.80;669069;1260;140187;-80
2023/10/03 12:19:12;;;;;;;11.70;5.30;;;;;;;27.98;55.61;99746.77;674068;1271;138341;-79
2023/10/03 12:34:17;;;;;;;11.60;5.20;;;;;;;27.74;56.36;99709.87;673919;1262;138381;-79
2023/10/03 12:49:22;;;;;;;9.60;4.70;;;;;;;27.51;57.27;99684.67;674272;1257;139023;-79
2023/10/03 13:04:27;;;;;;;10.00;5.30;;;;;;;27.73;57.19;99640.73;673720;1266;138888;-79
2023/10/03 13:19:31;;;;;;;13.30;5.10;;;;;;;28.43;56.55;99621.40;674534;1266;138119;-79
2023/10/03 13:34:34;;;;;;;8.60;4.90;;;;;;;28.70;56.27;99610.30;678793;1257;138484;-79
2023/10/03 13:49:39;;;;;;;14.10;4.70;;;;;;;28.38;56.34;99605.44;677829;1260;137660;-80
2023/10/03 14:04:44;;;;;;;12.10;4.70;;;;;;;28.22;57.14;99587.80;671427;1260;137985;-79
2023/10/03 14:19:50;;;;;;;14.30;7.30;;;;;;;28.13;57.18;99572.88;672554;1257;137960;-80
2023/10/03 14:34:54;;;;;;;11.50;4.60;;;;;;;27.99;57.64;99558.08;673620;1261;139357;-78
2023/10/03 14:49:58;;;;;;;9.30;6.50;;;;;;;27.99;57.77;99541.27;671641;1271;138909;-79
2023/10/03 15:05:02;;;;;;;18.90;7.80;;;;;;;27.81;58.25;99534.17;670395;1261;138080;-78
2023/10/03 15:20:06;;;;;;;15.80;7.00;;;;;;;27.63;57.81;99525.27;671500;1257;138498;-79
2023/10/03 15:35:10;;;;;;;130.20;56.10;;;;;;;27.26;59.34;99509.70;674238;1259;139263;-79
2023/10/03 15:50:15;;;;;;;35.10;19.10;;;;;;;27.14;59.66;99496.95;673874;1260;138460;-79
2023/10/03 16:05:19;;;;;;;12.60;7.00;;;;;;;27.06;59.76;99496.92;673706;1273;138239;-79
2023/10/03 16:20:23;;;;;;;18.80;8.50;;;;;;;26.92;59.74;99505.63;673148;1263;138089;-79
2023/10/03 16:35:26;;;;;;;18.20;6.30;;;;;;;26.94;58.77;99510.88;673957;1257;138094;-78
2023/10/03 16:50:29;;;;;;;16.90;6.50;;;;;;;26.93;58.39;99509.52;669209;1258;138188;-78
2023/10/03 17:05:35;;;;;;;15.20;5.90;;;;;;;26.96;58.32;99511.26;670345;1262;138379;-78
2023/10/03 17:20:38;;;;;;;12.90;6.20;;;;;;;26.82;58.98;99496.02;674577;1259;138293;-79
2023/10/03 17:35:42;;;;;;;17.10;5.90;;;;;;;26.64;59.67;99487.94;674452;1261;138662;-80
2023/10/03 17:50:47;;;;;;;12.70;6.30;;;;;;;26.56;60.35;99483.27;673759;1257;138164;-79
2023/10/03 18:16:59;;;;;;;20.20;7.50;;;;;;;26.19;61.67;99475.58;654412;1295;546061;-79
2023/10/03 18:32:04;;;;;;;14.30;6.40;;;;;;;25.93;62.29;99472.52;668926;1272;139090;-79
2023/10/03 18:47:09;;;;;;;13.60;7.10;;;;;;;25.87;62.58;99479.67;669448;1272;138718;-79
2023/10/03 19:02:13;;;;;;;16.80;8.00;;;;;;;25.84;62.67;99474.74;671815;1278;139727;-79
2023/10/03 19:17:16;;;;;;;20.30;9.50;;;;;;;25.67;63.33;99475.67;673460;1266;138006;-79
2023/10/03 19:32:20;;;;;;;19.80;10.00;;;;;;;25.35;64.56;99460.70;671124;1266;137567;-79
2023/10/03 19:47:23;;;;;;;23.20;8.80;;;;;;;25.14;65.89;99484.71;670997;1266;139731;-79
2023/10/03 20:02:27;;;;;;;18.30;8.30;;;;;;;24.45;71.88;99496.73;669727;1279;138728;-77
2023/10/03 20:17:30;;;;;;;21.90;10.30;;;;;;;23.18;79.25;99499.00;666557;1268;138200;-78
2023/10/03 20:32:33;;;;;;;22.20;9.90;;;;;;;22.81;82.39;99502.98;667013;1268;139014;-79
2023/10/03 20:47:38;;;;;;;19.40;8.90;;;;;;;22.51;86.41;99531.12;669274;1268;138710;-78
2023/10/03 21:02:43;;;;;;;9.90;4.50;;;;;;;21.17;91.67;99656.84;668608;1276;138622;-78
2023/10/03 21:17:47;;;;;;;6.90;3.20;;;;;;;19.61;91.03;99661.77;667044;1267;138899;-79
2023/10/03 21:32:50;;;;;;;5.90;2.40;;;;;;;19.38;95.73;99742.20;666518;1268;138302;-78
2023/10/03 21:47:54;;;;;;;9.30;4.00;;;;;;;19.23;99.34;99776.07;666223;1276;139286;-78
2023/10/03 22:02:58;;;;;;;7.80;3.50;;;;;;;19.18;99.65;99757.59;666667;1264;139913;-77
2023/10/03 22:18:03;;;;;;;4.70;2.00;;;;;;;19.24;99.83;99760.40;668762;1266;139739;-77
2023/10/03 22:33:08;;;;;;;2.00;1.30;;;;;;;18.98;99.86;99807.52;667295;1267;138651;-78
2023/10/03 22:48:13;;;;;;;4.20;1.00;;;;;;;18.35;98.56;99832.52;668332;1264;138943;-77
2023/10/03 23:03:16;;;;;;;3.00;0.90;;;;;;;17.93;98.57;99861.20;668531;1264;138648;-77
2023/10/03 23:18:20;;;;;;;3.80;0.80;;;;;;;17.74;97.34;99893.92;667569;1260;138789;-77
2023/10/03 23:33:25;;;;;;;3.60;1.30;;;;;;;17.59;97.56;99956.02;667717;1261;140192;-78
2023/10/03 23:48:29;;;;;;;3.00;1.10;;;;;;;17.47;97.14;99988.54;668100;1264;139356;-78
